Disclaimer

Please do not use the information listed here in-flight or in-navigation, as they are not provided to us by the airports but are provided by volunteers, so they might be outdated.

Search


Regions


Airport information page

No radio frequency information is available.

Airport informations:
Latitude: 21° 16' 01.80" S
Longitude: 043° 45' 39.80" W
Elevation: 3657 feet - 1115 meters
Operating hours: 24 hour operations
Operating agency: Military
Timezone: UTC-3(-2DT)
Fuel: Jet A1, without icing nhibitor.

100/130 octane gasoline, leaded, MIL-L-5572F (GREEN)

Runway information:
18/36 - 5774 x 98 feet< - >1760 x 30 meters

Recent METARs:
SBBQ 192200Z 18004KT 9999 TS FEW040CB BKN045 23/16 Q1020
SBBQ 192200Z 18004KT 9999 TS FEW040CB BKN045 23/16 Q1020
SBBQ 192200Z 18004KT 9999 TS FEW040CB BKN045 23/16 Q1020

Airport on the map: